Airfield :
LOGIN :

Register | Disclaimer

   EN    FR    IT 

 










Legend :    VFR   Marginal VFR   IFR   Intensive IFR   Very Intensive IFR
Visi :
Ceiling :
>= 8 km
>= 3000ft
5 to 8 km
1000 to 3000 ft
1500m to 5 km
500 to 1000 ft
800 to 1500m
200 to 500 ft
< 800m
< 200 ft
Symbols :   Thunderstorms  Fog  Heavy snow  Heavy precipitations  Wind > 20 kt
SIGMETs :     Misc.  Thunderstorms  Icing  Turbulence  Mountain Waves  Volcanic Ashes







- Airport Elevation : 512 ft
- IATA code : URO
- Download approach charts


LFOP - Rouen Vallée de Seine

CURRENT METAR :
  • 220600Z AUTO 24005KT 2800 RA BR BKN003 OVC010 11/11 Q1009 TEMPO 28020G30KT 3000 DZRA BECMG OVC004 SCT030TCU

EXPIRED METARs :
  • 220530Z AUTO 26005KT 6000 -RA BKN003/// OVC008/// ///TCU 11/11 Q1010
  • 220500Z AUTO 26008KT 9999 -RA BKN005/// OVC012/// ///TCU 11/11 Q1010
  • 220430Z AUTO 27010KT 250V310 9999 -RA OVC005/// ///CB 11/11 Q1011
  • 220400Z AUTO 26010KT 230V290 9999 -RA OVC005/// ///TCU 11/11 Q1010
  • 220330Z AUTO 26012KT 9999 -RA OVC003 11/11 Q1010

TAF TAF LFOP
Valid from the 22 at 06:00 until the 23 at 06:00 UTC


220500Z 2206/2306 26012KT 9999 OVC004 SCT030TCU
TEMPO 2206/2210 28020G30KT 3000 DZRA
BECMG 2210/2212 36010KT BKN030
BECMG 2216/2218 27010KT
PROB30 2216/2306 BKN012
ATIS : +33 2 35 80 80 34
Met : +33 2 32 86 52 80
No reported NOTAMs for that airfield.



MET'MAP, your aeronautical weather chart ! - Copyright ORBIFLY December 2007 - Disclaimer

ORBIFLY MET'MAP TEAM :

Programming & Development : Alexandra Zaïnal
Concept & Development : Baudouin d'Aumeries
Co-Development & Prog : Marc-Olivier Méhu
Technical & hardware support : Manuel Goepfert

Contact : metmap@orbifly.com




SOURCES & CREDITS :

   NOAA